sensor_id;sensor_type;location;lat;lon;timestamp;temperature;humidity
65072;DHT22;51663;52.310;17.016;2024-02-04T00:02:45;29.10;29.00
65072;DHT22;51663;52.310;17.016;2024-02-04T00:05:47;28.90;28.90
65072;DHT22;51663;52.310;17.016;2024-02-04T00:08:49;29.00;29.00
65072;DHT22;51663;52.310;17.016;2024-02-04T00:11:52;29.00;28.80
65072;DHT22;51663;52.310;17.016;2024-02-04T00:14:55;28.90;28.70
65072;DHT22;51663;52.310;17.016;2024-02-04T00:17:57;29.00;28.70
65072;DHT22;51663;52.310;17.016;2024-02-04T00:20:59;28.90;28.70
65072;DHT22;51663;52.310;17.016;2024-02-04T00:24:02;29.10;28.60
65072;DHT22;51663;52.310;17.016;2024-02-04T00:27:04;29.10;28.40
65072;DHT22;51663;52.310;17.016;2024-02-04T00:30:07;29.10;28.70
65072;DHT22;51663;52.310;17.016;2024-02-04T00:33:09;29.00;28.20
65072;DHT22;51663;52.310;17.016;2024-02-04T00:36:12;29.00;28.20
65072;DHT22;51663;52.310;17.016;2024-02-04T00:39:14;28.90;28.00
65072;DHT22;51663;52.310;17.016;2024-02-04T00:42:16;28.80;27.70
65072;DHT22;51663;52.310;17.016;2024-02-04T00:45:18;28.90;27.40
65072;DHT22;51663;52.310;17.016;2024-02-04T00:48:21;28.80;27.40
65072;DHT22;51663;52.310;17.016;2024-02-04T00:51:23;28.90;27.30
65072;DHT22;51663;52.310;17.016;2024-02-04T00:54:26;28.70;27.20
65072;DHT22;51663;52.310;17.016;2024-02-04T00:57:28;28.60;27.20
65072;DHT22;51663;52.310;17.016;2024-02-04T01:00:31;28.50;27.30
65072;DHT22;51663;52.310;17.016;2024-02-04T01:03:33;28.70;27.00
65072;DHT22;51663;52.310;17.016;2024-02-04T01:06:36;28.80;27.10
65072;DHT22;51663;52.310;17.016;2024-02-04T01:09:57;28.70;27.00
65072;DHT22;51663;52.310;17.016;2024-02-04T01:12:59;28.50;27.20
65072;DHT22;51663;52.310;17.016;2024-02-04T01:16:02;28.70;27.30
65072;DHT22;51663;52.310;17.016;2024-02-04T01:19:04;28.50;27.20
65072;DHT22;51663;52.310;17.016;2024-02-04T01:22:06;28.40;27.30
65072;DHT22;51663;52.310;17.016;2024-02-04T01:25:09;28.50;27.50
65072;DHT22;51663;52.310;17.016;2024-02-04T01:28:11;28.20;27.50
65072;DHT22;51663;52.310;17.016;2024-02-04T01:31:14;28.30;27.60
65072;DHT22;51663;52.310;17.016;2024-02-04T01:34:16;28.20;27.70
65072;DHT22;51663;52.310;17.016;2024-02-04T01:37:19;28.40;27.70
65072;DHT22;51663;52.310;17.016;2024-02-04T01:40:21;28.40;27.90
65072;DHT22;51663;52.310;17.016;2024-02-04T01:43:23;28.40;27.80
65072;DHT22;51663;52.310;17.016;2024-02-04T01:46:29;28.20;27.90
65072;DHT22;51663;52.310;17.016;2024-02-04T01:49:31;28.20;28.10
65072;DHT22;51663;52.310;17.016;2024-02-04T01:52:36;28.20;28.10
65072;DHT22;51663;52.310;17.016;2024-02-04T01:55:39;28.40;28.10
65072;DHT22;51663;52.310;17.016;2024-02-04T01:58:42;28.20;28.30
65072;DHT22;51663;52.310;17.016;2024-02-04T02:01:48;28.10;28.20
65072;DHT22;51663;52.310;17.016;2024-02-04T02:04:51;28.20;28.50
65072;DHT22;51663;52.310;17.016;2024-02-04T02:07:54;28.40;28.40
65072;DHT22;51663;52.310;17.016;2024-02-04T02:11:03;28.30;28.30
65072;DHT22;51663;52.310;17.016;2024-02-04T02:14:13;28.40;28.40
65072;DHT22;51663;52.310;17.016;2024-02-04T02:17:22;28.30;28.30
65072;DHT22;51663;52.310;17.016;2024-02-04T02:20:50;28.40;28.50
65072;DHT22;51663;52.310;17.016;2024-02-04T02:24:08;28.70;28.20
65072;DHT22;51663;52.310;17.016;2024-02-04T02:27:12;29.20;28.00
65072;DHT22;51663;52.310;17.016;2024-02-04T02:30:14;29.00;28.00
65072;DHT22;51663;52.310;17.016;2024-02-04T02:33:17;29.20;28.00
65072;DHT22;51663;52.310;17.016;2024-02-04T02:36:21;29.00;27.80
65072;DHT22;51663;52.310;17.016;2024-02-04T02:39:29;28.90;28.00
65072;DHT22;51663;52.310;17.016;2024-02-04T02:42:33;28.80;28.30
65072;DHT22;51663;52.310;17.016;2024-02-04T02:45:39;28.90;28.10
65072;DHT22;51663;52.310;17.016;2024-02-04T02:48:43;29.20;28.10
65072;DHT22;51663;52.310;17.016;2024-02-04T02:51:45;29.10;28.00
65072;DHT22;51663;52.310;17.016;2024-02-04T02:54:47;29.20;27.90
65072;DHT22;51663;52.310;17.016;2024-02-04T02:57:50;29.20;27.80
65072;DHT22;51663;52.310;17.016;2024-02-04T03:00:52;29.20;27.70
65072;DHT22;51663;52.310;17.016;2024-02-04T03:03:55;29.30;27.70
65072;DHT22;51663;52.310;17.016;2024-02-04T03:06:57;29.20;27.60
65072;DHT22;51663;52.310;17.016;2024-02-04T03:10:00;29.10;27.60
65072;DHT22;51663;52.310;17.016;2024-02-04T03:13:02;29.20;27.50
65072;DHT22;51663;52.310;17.016;2024-02-04T03:16:10;29.30;27.50
65072;DHT22;51663;52.310;17.016;2024-02-04T03:19:13;29.20;27.40
65072;DHT22;51663;52.310;17.016;2024-02-04T03:22:16;29.30;27.40
65072;DHT22;51663;52.310;17.016;2024-02-04T03:25:18;29.40;27.20
65072;DHT22;51663;52.310;17.016;2024-02-04T03:28:21;29.20;27.30
65072;DHT22;51663;52.310;17.016;2024-02-04T03:31:23;29.00;27.50
65072;DHT22;51663;52.310;17.016;2024-02-04T03:34:26;28.90;27.50
65072;DHT22;51663;52.310;17.016;2024-02-04T03:37:28;28.80;27.50
65072;DHT22;51663;52.310;17.016;2024-02-04T03:40:31;28.80;27.40
65072;DHT22;51663;52.310;17.016;2024-02-04T03:43:33;28.80;27.60
65072;DHT22;51663;52.310;17.016;2024-02-04T03:46:38;28.60;27.70
65072;DHT22;51663;52.310;17.016;2024-02-04T03:49:42;28.40;27.70
65072;DHT22;51663;52.310;17.016;2024-02-04T03:52:44;28.60;27.60
65072;DHT22;51663;52.310;17.016;2024-02-04T03:55:47;28.50;27.50
65072;DHT22;51663;52.310;17.016;2024-02-04T03:58:50;28.40;27.60
65072;DHT22;51663;52.310;17.016;2024-02-04T04:01:52;28.50;27.50
65072;DHT22;51663;52.310;17.016;2024-02-04T04:05:00;28.50;27.40
65072;DHT22;51663;52.310;17.016;2024-02-04T04:08:02;28.40;27.30
65072;DHT22;51663;52.310;17.016;2024-02-04T04:11:06;28.40;27.40
65072;DHT22;51663;52.310;17.016;2024-02-04T04:14:09;28.30;27.30
65072;DHT22;51663;52.310;17.016;2024-02-04T04:17:11;28.00;27.40
65072;DHT22;51663;52.310;17.016;2024-02-04T04:20:13;28.10;27.40
65072;DHT22;51663;52.310;17.016;2024-02-04T04:23:16;28.30;27.40
65072;DHT22;51663;52.310;17.016;2024-02-04T04:26:18;28.30;27.30
65072;DHT22;51663;52.310;17.016;2024-02-04T04:29:21;28.00;27.30
65072;DHT22;51663;52.310;17.016;2024-02-04T04:32:23;28.20;27.40
65072;DHT22;51663;52.310;17.016;2024-02-04T04:35:26;28.20;27.40
65072;DHT22;51663;52.310;17.016;2024-02-04T04:38:28;28.40;27.20
65072;DHT22;51663;52.310;17.016;2024-02-04T04:41:30;28.60;27.20
65072;DHT22;51663;52.310;17.016;2024-02-04T04:44:33;28.60;27.20
65072;DHT22;51663;52.310;17.016;2024-02-04T04:47:35;28.40;27.20
65072;DHT22;51663;52.310;17.016;2024-02-04T04:50:37;28.50;27.00
65072;DHT22;51663;52.310;17.016;2024-02-04T04:53:40;28.60;27.10
65072;DHT22;51663;52.310;17.016;2024-02-04T04:56:42;28.70;27.00
65072;DHT22;51663;52.310;17.016;2024-02-04T04:59:45;28.80;26.80
65072;DHT22;51663;52.310;17.016;2024-02-04T05:02:47;28.70;26.90
65072;DHT22;51663;52.310;17.016;2024-02-04T05:05:50;28.70;26.80
65072;DHT22;51663;52.310;17.016;2024-02-04T05:08:52;28.60;26.90
65072;DHT22;51663;52.310;17.016;2024-02-04T05:11:55;28.80;26.80
65072;DHT22;51663;52.310;17.016;2024-02-04T05:14:57;28.70;26.80
65072;DHT22;51663;52.310;17.016;2024-02-04T05:17:59;28.60;26.90
65072;DHT22;51663;52.310;17.016;2024-02-04T05:21:02;28.60;26.90
65072;DHT22;51663;52.310;17.016;2024-02-04T05:24:05;28.60;26.90
65072;DHT22;51663;52.310;17.016;2024-02-04T05:27:07;28.90;26.80
65072;DHT22;51663;52.310;17.016;2024-02-04T05:30:10;28.80;26.70
65072;DHT22;51663;52.310;17.016;2024-02-04T05:33:15;28.80;26.60
65072;DHT22;51663;52.310;17.016;2024-02-04T05:36:18;28.90;26.50
65072;DHT22;51663;52.310;17.016;2024-02-04T05:39:20;28.80;26.50
65072;DHT22;51663;52.310;17.016;2024-02-04T05:42:22;28.90;26.40
65072;DHT22;51663;52.310;17.016;2024-02-04T05:45:25;29.00;26.60
65072;DHT22;51663;52.310;17.016;2024-02-04T05:48:28;28.90;26.40
65072;DHT22;51663;52.310;17.016;2024-02-04T05:51:38;29.00;26.40
65072;DHT22;51663;52.310;17.016;2024-02-04T05:54:41;28.90;26.20
65072;DHT22;51663;52.310;17.016;2024-02-04T05:57:43;28.40;26.70
65072;DHT22;51663;52.310;17.016;2024-02-04T06:00:46;28.40;26.70
65072;DHT22;51663;52.310;17.016;2024-02-04T06:03:48;28.50;26.70
65072;DHT22;51663;52.310;17.016;2024-02-04T06:06:50;28.40;26.80
65072;DHT22;51663;52.310;17.016;2024-02-04T06:09:53;28.70;26.60
65072;DHT22;51663;52.310;17.016;2024-02-04T06:12:58;28.70;26.50
65072;DHT22;51663;52.310;17.016;2024-02-04T06:16:00;28.80;26.60
65072;DHT22;51663;52.310;17.016;2024-02-04T06:19:02;29.10;26.50
65072;DHT22;51663;52.310;17.016;2024-02-04T06:22:04;29.00;26.40
65072;DHT22;51663;52.310;17.016;2024-02-04T06:25:07;28.80;27.00
65072;DHT22;51663;52.310;17.016;2024-02-04T06:28:09;29.00;26.40
65072;DHT22;51663;52.310;17.016;2024-02-04T06:31:13;28.90;26.40
65072;DHT22;51663;52.310;17.016;2024-02-04T06:34:15;28.70;26.40
65072;DHT22;51663;52.310;17.016;2024-02-04T06:37:18;28.70;26.50
65072;DHT22;51663;52.310;17.016;2024-02-04T06:40:20;28.60;26.40
65072;DHT22;51663;52.310;17.016;2024-02-04T06:43:22;28.60;26.50
65072;DHT22;51663;52.310;17.016;2024-02-04T06:46:28;28.70;26.40
65072;DHT22;51663;52.310;17.016;2024-02-04T06:49:30;28.90;26.40
65072;DHT22;51663;52.310;17.016;2024-02-04T06:52:33;29.00;26.30
65072;DHT22;51663;52.310;17.016;2024-02-04T06:55:35;28.80;26.30
65072;DHT22;51663;52.310;17.016;2024-02-04T06:58:41;28.90;26.40
65072;DHT22;51663;52.310;17.016;2024-02-04T07:01:44;29.00;26.20
65072;DHT22;51663;52.310;17.016;2024-02-04T07:04:46;29.00;26.40
65072;DHT22;51663;52.310;17.016;2024-02-04T07:07:50;28.90;26.40
65072;DHT22;51663;52.310;17.016;2024-02-04T07:10:53;29.00;26.30
65072;DHT22;51663;52.310;17.016;2024-02-04T07:13:58;29.20;26.40
65072;DHT22;51663;52.310;17.016;2024-02-04T07:17:02;29.10;26.30
65072;DHT22;51663;52.310;17.016;2024-02-04T07:20:05;29.10;26.40
65072;DHT22;51663;52.310;17.016;2024-02-04T07:23:08;29.20;26.40
65072;DHT22;51663;52.310;17.016;2024-02-04T07:26:11;29.20;26.30
65072;DHT22;51663;52.310;17.016;2024-02-04T07:29:14;29.40;26.20
65072;DHT22;51663;52.310;17.016;2024-02-04T07:32:16;29.50;26.50
65072;DHT22;51663;52.310;17.016;2024-02-04T07:35:19;29.40;26.40
65072;DHT22;51663;52.310;17.016;2024-02-04T07:38:21;29.70;26.40
65072;DHT22;51663;52.310;17.016;2024-02-04T07:41:23;29.60;26.20
65072;DHT22;51663;52.310;17.016;2024-02-04T07:44:27;29.60;26.30
65072;DHT22;51663;52.310;17.016;2024-02-04T07:47:29;29.60;26.40
65072;DHT22;51663;52.310;17.016;2024-02-04T07:50:32;29.80;26.60
65072;DHT22;51663;52.310;17.016;2024-02-04T07:53:34;29.50;26.60
65072;DHT22;51663;52.310;17.016;2024-02-04T07:56:38;29.40;26.80
65072;DHT22;51663;52.310;17.016;2024-02-04T07:59:40;29.30;27.00
65072;DHT22;51663;52.310;17.016;2024-02-04T08:02:44;29.60;26.90
65072;DHT22;51663;52.310;17.016;2024-02-04T08:05:47;29.40;27.10
65072;DHT22;51663;52.310;17.016;2024-02-04T08:08:49;29.50;27.00
65072;DHT22;51663;52.310;17.016;2024-02-04T08:11:52;29.50;27.30
65072;DHT22;51663;52.310;17.016;2024-02-04T08:14:58;29.70;27.20
65072;DHT22;51663;52.310;17.016;2024-02-04T08:18:00;29.40;27.30
65072;DHT22;51663;52.310;17.016;2024-02-04T08:21:05;29.50;27.20
65072;DHT22;51663;52.310;17.016;2024-02-04T08:24:07;29.60;27.20
65072;DHT22;51663;52.310;17.016;2024-02-04T08:27:09;29.60;27.20
65072;DHT22;51663;52.310;17.016;2024-02-04T08:30:12;29.60;27.10
65072;DHT22;51663;52.310;17.016;2024-02-04T08:33:15;29.60;27.10
65072;DHT22;51663;52.310;17.016;2024-02-04T08:36:17;29.50;27.20
65072;DHT22;51663;52.310;17.016;2024-02-04T08:39:21;29.80;27.00
65072;DHT22;51663;52.310;17.016;2024-02-04T08:42:24;29.60;27.20
65072;DHT22;51663;52.310;17.016;2024-02-04T08:45:26;29.70;27.00
65072;DHT22;51663;52.310;17.016;2024-02-04T08:48:29;30.00;27.00
65072;DHT22;51663;52.310;17.016;2024-02-04T08:51:31;30.10;26.80
65072;DHT22;51663;52.310;17.016;2024-02-04T08:54:33;29.90;26.90
65072;DHT22;51663;52.310;17.016;2024-02-04T08:57:36;29.90;26.80
65072;DHT22;51663;52.310;17.016;2024-02-04T09:00:38;29.70;26.80
65072;DHT22;51663;52.310;17.016;2024-02-04T09:03:40;29.60;27.10
65072;DHT22;51663;52.310;17.016;2024-02-04T09:06:42;29.70;26.90
65072;DHT22;51663;52.310;17.016;2024-02-04T09:09:45;29.90;26.90
65072;DHT22;51663;52.310;17.016;2024-02-04T09:12:47;30.20;26.50
65072;DHT22;51663;52.310;17.016;2024-02-04T09:15:50;30.00;26.40
65072;DHT22;51663;52.310;17.016;2024-02-04T09:18:52;30.00;26.60
65072;DHT22;51663;52.310;17.016;2024-02-04T09:21:55;29.90;26.50
65072;DHT22;51663;52.310;17.016;2024-02-04T09:24:58;30.10;26.60
65072;DHT22;51663;52.310;17.016;2024-02-04T09:28:01;30.50;26.20
65072;DHT22;51663;52.310;17.016;2024-02-04T09:31:03;30.70;26.20
65072;DHT22;51663;52.310;17.016;2024-02-04T09:34:06;30.60;26.20
65072;DHT22;51663;52.310;17.016;2024-02-04T09:37:09;30.80;25.90
65072;DHT22;51663;52.310;17.016;2024-02-04T09:40:12;30.80;25.90
65072;DHT22;51663;52.310;17.016;2024-02-04T09:43:14;30.80;25.90
65072;DHT22;51663;52.310;17.016;2024-02-04T09:46:18;30.70;25.90
65072;DHT22;51663;52.310;17.016;2024-02-04T09:49:21;30.40;25.90
65072;DHT22;51663;52.310;17.016;2024-02-04T09:52:29;30.30;26.00
65072;DHT22;51663;52.310;17.016;2024-02-04T09:55:32;30.30;26.00
65072;DHT22;51663;52.310;17.016;2024-02-04T09:58:35;30.30;25.90
65072;DHT22;51663;52.310;17.016;2024-02-04T10:01:37;30.10;26.00
65072;DHT22;51663;52.310;17.016;2024-02-04T10:04:40;29.90;26.10
65072;DHT22;51663;52.310;17.016;2024-02-04T10:07:43;29.90;26.40
65072;DHT22;51663;52.310;17.016;2024-02-04T10:10:46;29.80;26.30
65072;DHT22;51663;52.310;17.016;2024-02-04T10:13:49;29.90;26.30
65072;DHT22;51663;52.310;17.016;2024-02-04T10:16:51;29.90;26.30
65072;DHT22;51663;52.310;17.016;2024-02-04T10:19:54;29.90;26.30
65072;DHT22;51663;52.310;17.016;2024-02-04T10:22:57;30.00;26.20
65072;DHT22;51663;52.310;17.016;2024-02-04T10:26:00;30.00;26.30
65072;DHT22;51663;52.310;17.016;2024-02-04T10:29:06;30.50;25.90
65072;DHT22;51663;52.310;17.016;2024-02-04T10:32:08;30.40;25.80
65072;DHT22;51663;52.310;17.016;2024-02-04T10:35:11;30.60;25.80
65072;DHT22;51663;52.310;17.016;2024-02-04T10:38:13;30.70;25.90
65072;DHT22;51663;52.310;17.016;2024-02-04T10:41:17;30.50;25.70
65072;DHT22;51663;52.310;17.016;2024-02-04T10:44:23;30.50;25.70
65072;DHT22;51663;52.310;17.016;2024-02-04T10:47:31;30.20;25.90
65072;DHT22;51663;52.310;17.016;2024-02-04T10:50:35;30.30;25.90
65072;DHT22;51663;52.310;17.016;2024-02-04T10:53:41;30.60;25.60
65072;DHT22;51663;52.310;17.016;2024-02-04T10:56:45;30.50;25.70
65072;DHT22;51663;52.310;17.016;2024-02-04T10:59:52;30.60;25.70
65072;DHT22;51663;52.310;17.016;2024-02-04T11:02:54;30.40;25.70
65072;DHT22;51663;52.310;17.016;2024-02-04T11:05:57;30.30;26.00
65072;DHT22;51663;52.310;17.016;2024-02-04T11:09:00;30.50;25.90
65072;DHT22;51663;52.310;17.016;2024-02-04T11:12:06;30.20;26.00
65072;DHT22;51663;52.310;17.016;2024-02-04T11:15:12;30.30;25.90
65072;DHT22;51663;52.310;17.016;2024-02-04T11:18:35;30.10;25.90
65072;DHT22;51663;52.310;17.016;2024-02-04T11:28:21;30.00;26.30
65072;DHT22;51663;52.310;17.016;2024-02-04T11:31:28;30.30;26.30
65072;DHT22;51663;52.310;17.016;2024-02-04T11:34:33;30.10;26.10
65072;DHT22;51663;52.310;17.016;2024-02-04T11:37:36;30.20;26.10
65072;DHT22;51663;52.310;17.016;2024-02-04T11:40:42;30.00;26.10
65072;DHT22;51663;52.310;17.016;2024-02-04T11:43:45;30.20;26.00
65072;DHT22;51663;52.310;17.016;2024-02-04T11:46:50;30.00;26.10
65072;DHT22;51663;52.310;17.016;2024-02-04T11:50:01;30.10;25.90
65072;DHT22;51663;52.310;17.016;2024-02-04T11:53:13;29.90;26.10
65072;DHT22;51663;52.310;17.016;2024-02-04T11:56:19;30.20;26.10
65072;DHT22;51663;52.310;17.016;2024-02-04T11:59:27;30.10;25.80
65072;DHT22;51663;52.310;17.016;2024-02-04T12:02:33;29.80;26.00
65072;DHT22;51663;52.310;17.016;2024-02-04T12:05:36;30.00;26.10
65072;DHT22;51663;52.310;17.016;2024-02-04T12:08:39;30.30;25.70
65072;DHT22;51663;52.310;17.016;2024-02-04T12:11:47;30.20;25.80
65072;DHT22;51663;52.310;17.016;2024-02-04T12:14:56;30.00;25.60
65072;DHT22;51663;52.310;17.016;2024-02-04T12:18:07;30.00;25.70
65072;DHT22;51663;52.310;17.016;2024-02-04T12:21:12;30.10;25.70
65072;DHT22;51663;52.310;17.016;2024-02-04T12:24:15;30.30;25.50
65072;DHT22;51663;52.310;17.016;2024-02-04T12:27:18;30.50;25.40
65072;DHT22;51663;52.310;17.016;2024-02-04T12:30:21;30.50;25.60
65072;DHT22;51663;52.310;17.016;2024-02-04T12:33:33;30.30;25.40
65072;DHT22;51663;52.310;17.016;2024-02-04T12:36:36;30.70;25.20
65072;DHT22;51663;52.310;17.016;2024-02-04T12:39:38;30.10;25.60
65072;DHT22;51663;52.310;17.016;2024-02-04T12:42:41;30.40;25.20
65072;DHT22;51663;52.310;17.016;2024-02-04T12:45:44;30.50;25.30
65072;DHT22;51663;52.310;17.016;2024-02-04T12:48:54;30.60;25.20
65072;DHT22;51663;52.310;17.016;2024-02-04T12:52:07;30.50;25.30
65072;DHT22;51663;52.310;17.016;2024-02-04T12:55:19;30.50;25.20
65072;DHT22;51663;52.310;17.016;2024-02-04T12:58:23;30.30;25.10
65072;DHT22;51663;52.310;17.016;2024-02-04T13:01:25;30.50;25.30
65072;DHT22;51663;52.310;17.016;2024-02-04T13:04:40;30.00;25.40
65072;DHT22;51663;52.310;17.016;2024-02-04T13:07:42;30.00;25.50
65072;DHT22;51663;52.310;17.016;2024-02-04T13:10:54;30.00;25.70
65072;DHT22;51663;52.310;17.016;2024-02-04T13:13:57;30.30;25.50
65072;DHT22;51663;52.310;17.016;2024-02-04T13:16:59;30.00;25.30
65072;DHT22;51663;52.310;17.016;2024-02-04T13:20:02;29.70;25.50
65072;DHT22;51663;52.310;17.016;2024-02-04T13:23:05;29.80;25.70
65072;DHT22;51663;52.310;17.016;2024-02-04T13:26:07;29.60;25.70
65072;DHT22;51663;52.310;17.016;2024-02-04T13:29:10;29.60;25.70
65072;DHT22;51663;52.310;17.016;2024-02-04T13:32:12;29.40;25.90
65072;DHT22;51663;52.310;17.016;2024-02-04T13:35:15;29.80;25.90
65072;DHT22;51663;52.310;17.016;2024-02-04T13:38:21;29.80;25.50
65072;DHT22;51663;52.310;17.016;2024-02-04T13:41:24;30.00;25.10
65072;DHT22;51663;52.310;17.016;2024-02-04T13:44:26;29.70;25.20
65072;DHT22;51663;52.310;17.016;2024-02-04T13:47:28;29.40;25.60
65072;DHT22;51663;52.310;17.016;2024-02-04T13:50:30;29.70;25.60
65072;DHT22;51663;52.310;17.016;2024-02-04T13:53:33;29.60;25.60
65072;DHT22;51663;52.310;17.016;2024-02-04T13:56:37;29.80;25.50
65072;DHT22;51663;52.310;17.016;2024-02-04T13:59:39;29.90;25.40
65072;DHT22;51663;52.310;17.016;2024-02-04T14:02:41;29.80;25.20
65072;DHT22;51663;52.310;17.016;2024-02-04T14:05:44;29.60;25.50
65072;DHT22;51663;52.310;17.016;2024-02-04T14:08:46;29.50;25.70
65072;DHT22;51663;52.310;17.016;2024-02-04T14:11:49;29.80;25.50
65072;DHT22;51663;52.310;17.016;2024-02-04T14:14:51;29.90;25.30
65072;DHT22;51663;52.310;17.016;2024-02-04T14:17:53;29.70;25.20
65072;DHT22;51663;52.310;17.016;2024-02-04T14:20:56;29.50;25.50
65072;DHT22;51663;52.310;17.016;2024-02-04T14:23:58;29.40;25.70
65072;DHT22;51663;52.310;17.016;2024-02-04T14:27:00;29.30;25.80
65072;DHT22;51663;52.310;17.016;2024-02-04T14:30:03;29.40;25.70
65072;DHT22;51663;52.310;17.016;2024-02-04T14:33:05;29.40;25.70
65072;DHT22;51663;52.310;17.016;2024-02-04T14:36:08;29.40;25.60
65072;DHT22;51663;52.310;17.016;2024-02-04T14:39:12;29.20;25.70
65072;DHT22;51663;52.310;17.016;2024-02-04T14:42:15;29.30;25.80
65072;DHT22;51663;52.310;17.016;2024-02-04T14:45:17;29.60;25.70
65072;DHT22;51663;52.310;17.016;2024-02-04T14:48:21;29.50;25.60
65072;DHT22;51663;52.310;17.016;2024-02-04T14:51:25;29.30;25.50
65072;DHT22;51663;52.310;17.016;2024-02-04T14:54:27;29.30;25.60
65072;DHT22;51663;52.310;17.016;2024-02-04T14:57:32;29.60;25.60
65072;DHT22;51663;52.310;17.016;2024-02-04T15:00:35;29.60;25.50
65072;DHT22;51663;52.310;17.016;2024-02-04T15:03:37;29.70;25.30
65072;DHT22;51663;52.310;17.016;2024-02-04T15:06:45;29.30;25.50
65072;DHT22;51663;52.310;17.016;2024-02-04T15:09:47;29.10;25.70
65072;DHT22;51663;52.310;17.016;2024-02-04T15:12:52;29.20;25.80
65072;DHT22;51663;52.310;17.016;2024-02-04T15:15:55;29.10;25.80
65072;DHT22;51663;52.310;17.016;2024-02-04T15:18:58;29.00;25.90
65072;DHT22;51663;52.310;17.016;2024-02-04T15:22:02;29.00;26.00
65072;DHT22;51663;52.310;17.016;2024-02-04T15:25:05;29.10;25.70
65072;DHT22;51663;52.310;17.016;2024-02-04T15:28:10;29.10;25.80
65072;DHT22;51663;52.310;17.016;2024-02-04T15:31:13;29.20;25.70
65072;DHT22;51663;52.310;17.016;2024-02-04T15:34:15;28.90;25.80
65072;DHT22;51663;52.310;17.016;2024-02-04T15:37:18;29.00;26.00
65072;DHT22;51663;52.310;17.016;2024-02-04T15:40:21;28.50;26.20
65072;DHT22;51663;52.310;17.016;2024-02-04T15:43:24;28.30;26.50
65072;DHT22;51663;52.310;17.016;2024-02-04T15:46:27;28.40;26.50
65072;DHT22;51663;52.310;17.016;2024-02-04T15:49:31;28.60;26.10
65072;DHT22;51663;52.310;17.016;2024-02-04T15:52:34;28.70;26.10
65072;DHT22;51663;52.310;17.016;2024-02-04T15:55:36;28.50;26.10
65072;DHT22;51663;52.310;17.016;2024-02-04T15:58:40;28.50;26.30
65072;DHT22;51663;52.310;17.016;2024-02-04T16:01:43;28.30;26.40
65072;DHT22;51663;52.310;17.016;2024-02-04T16:04:47;28.50;26.30
65072;DHT22;51663;52.310;17.016;2024-02-04T16:07:53;28.50;26.30
65072;DHT22;51663;52.310;17.016;2024-02-04T16:11:04;28.70;26.20
65072;DHT22;51663;52.310;17.016;2024-02-04T16:14:08;28.80;26.00
65072;DHT22;51663;52.310;17.016;2024-02-04T16:17:15;28.90;26.10
65072;DHT22;51663;52.310;17.016;2024-02-04T16:20:23;29.00;25.80
65072;DHT22;51663;52.310;17.016;2024-02-04T16:23:28;28.70;25.90
65072;DHT22;51663;52.310;17.016;2024-02-04T16:26:31;28.60;26.20
65072;DHT22;51663;52.310;17.016;2024-02-04T16:29:34;28.50;26.30
65072;DHT22;51663;52.310;17.016;2024-02-04T16:32:38;28.50;26.30
65072;DHT22;51663;52.310;17.016;2024-02-04T16:35:41;28.90;26.10
65072;DHT22;51663;52.310;17.016;2024-02-04T16:38:45;28.90;26.10
65072;DHT22;51663;52.310;17.016;2024-02-04T16:41:47;29.00;26.10
65072;DHT22;51663;52.310;17.016;2024-02-04T16:44:50;29.30;26.00
65072;DHT22;51663;52.310;17.016;2024-02-04T16:47:53;29.30;25.90
65072;DHT22;51663;52.310;17.016;2024-02-04T16:50:56;28.90;25.90
65072;DHT22;51663;52.310;17.016;2024-02-04T16:53:58;28.90;25.90
65072;DHT22;51663;52.310;17.016;2024-02-04T16:57:02;29.00;26.10
65072;DHT22;51663;52.310;17.016;2024-02-04T17:00:09;28.90;26.20
65072;DHT22;51663;52.310;17.016;2024-02-04T17:03:12;29.10;26.10
65072;DHT22;51663;52.310;17.016;2024-02-04T17:06:16;29.00;26.00
65072;DHT22;51663;52.310;17.016;2024-02-04T17:09:19;28.70;26.20
65072;DHT22;51663;52.310;17.016;2024-02-04T17:12:22;28.70;26.40
65072;DHT22;51663;52.310;17.016;2024-02-04T17:15:27;28.60;26.40
65072;DHT22;51663;52.310;17.016;2024-02-04T17:18:47;28.70;26.30
65072;DHT22;51663;52.310;17.016;2024-02-04T17:21:56;28.80;26.50
65072;DHT22;51663;52.310;17.016;2024-02-04T17:25:04;29.00;26.20
65072;DHT22;51663;52.310;17.016;2024-02-04T17:28:09;28.90;26.20
65072;DHT22;51663;52.310;17.016;2024-02-04T17:31:12;28.90;26.20
65072;DHT22;51663;52.310;17.016;2024-02-04T17:34:15;29.00;26.20
65072;DHT22;51663;52.310;17.016;2024-02-04T17:37:17;28.70;26.30
65072;DHT22;51663;52.310;17.016;2024-02-04T17:40:20;29.00;26.20
65072;DHT22;51663;52.310;17.016;2024-02-04T17:43:23;28.90;26.20
65072;DHT22;51663;52.310;17.016;2024-02-04T17:46:26;29.20;26.10
65072;DHT22;51663;52.310;17.016;2024-02-04T17:49:29;29.10;26.00
65072;DHT22;51663;52.310;17.016;2024-02-04T17:52:32;29.00;26.60
65072;DHT22;51663;52.310;17.016;2024-02-04T17:55:36;29.00;26.10
65072;DHT22;51663;52.310;17.016;2024-02-04T17:58:41;29.20;26.00
65072;DHT22;51663;52.310;17.016;2024-02-04T18:01:43;29.10;26.00
65072;DHT22;51663;52.310;17.016;2024-02-04T18:04:46;29.30;26.00
65072;DHT22;51663;52.310;17.016;2024-02-04T18:07:49;29.10;26.10
65072;DHT22;51663;52.310;17.016;2024-02-04T18:10:54;29.10;26.00
65072;DHT22;51663;52.310;17.016;2024-02-04T18:13:58;29.40;26.00
65072;DHT22;51663;52.310;17.016;2024-02-04T18:17:03;29.40;25.80
65072;DHT22;51663;52.310;17.016;2024-02-04T18:20:11;29.30;25.90
65072;DHT22;51663;52.310;17.016;2024-02-04T18:23:14;29.10;26.10
65072;DHT22;51663;52.310;17.016;2024-02-04T18:29:26;28.90;26.20
65072;DHT22;51663;52.310;17.016;2024-02-04T18:32:29;29.30;26.20
65072;DHT22;51663;52.310;17.016;2024-02-04T18:35:31;29.10;26.20
65072;DHT22;51663;52.310;17.016;2024-02-04T18:38:34;29.30;26.10
65072;DHT22;51663;52.310;17.016;2024-02-04T18:41:42;28.60;26.60
65072;DHT22;51663;52.310;17.016;2024-02-04T18:44:51;28.80;26.60
65072;DHT22;51663;52.310;17.016;2024-02-04T18:47:54;28.80;26.70
65072;DHT22;51663;52.310;17.016;2024-02-04T18:50:58;29.10;26.80
65072;DHT22;51663;52.310;17.016;2024-02-04T18:54:05;29.10;26.60
65072;DHT22;51663;52.310;17.016;2024-02-04T18:57:07;29.20;26.50
65072;DHT22;51663;52.310;17.016;2024-02-04T19:00:14;29.00;26.50
65072;DHT22;51663;52.310;17.016;2024-02-04T19:03:19;29.30;26.50
65072;DHT22;51663;52.310;17.016;2024-02-04T19:06:29;29.20;26.40
65072;DHT22;51663;52.310;17.016;2024-02-04T19:09:33;28.70;26.70
65072;DHT22;51663;52.310;17.016;2024-02-04T19:12:36;29.00;26.80